Terminal Aerodrome Forecast
Issued by NWS Twin Cities, MN

Home | Current Version | Previous Version | Text Only | Print | Product List | Glossary On
Versions: 1 2 3 4 5 6 7 8 9 10 11 12 13 14 15 16 17 18 19
000
FTUS43 KMPX 222120 AAA
TAFSTC
TAF AMD
KSTC 222120Z 2221/2318 21010KT P6SM OVC009
      TEMPO 2221/2222 BKN012
     FM222200 21012KT P6SM SCT012
      TEMPO 2222/2223 BKN012
     FM230500 21013KT P6SM OVC100
     FM230900 20013KT P6SM VCSH OVC060=

USA.gov is the U.S. government's official web portal to all federal, state and local government web resources and services.